createdAt,value
2019-02-26T00:01:23.462Z,96843.58
2019-02-26T00:03:51.669Z,96837.76
2019-02-26T00:06:21.109Z,96843.52
2019-02-26T00:08:53.255Z,96848.19
2019-02-26T00:11:24.358Z,96848.16
2019-02-26T00:13:52.412Z,96843.34
2019-02-26T00:16:22.316Z,96842.50
2019-02-26T00:18:50.909Z,96839.63
2019-02-26T00:21:22.004Z,96844.03
2019-02-26T00:23:51.409Z,96837.89
2019-02-26T00:26:22.334Z,96843.08
2019-02-26T00:28:51.028Z,96840.12
2019-02-26T00:31:21.532Z,96843.91
2019-02-26T00:33:49.973Z,96840.89
2019-02-26T00:36:18.619Z,96841.38
2019-02-26T00:38:47.276Z,96840.75
2019-02-26T00:41:15.865Z,96833.42
2019-02-26T00:43:44.444Z,96829.20
2019-02-26T00:46:13.027Z,96824.84
2019-02-26T00:48:43.128Z,96824.39
2019-02-26T00:51:11.760Z,96819.18
2019-02-26T00:53:40.348Z,96814.14
2019-02-26T00:56:10.321Z,96810.77
2019-02-26T00:58:41.516Z,96816.80
2019-02-26T01:01:10.657Z,96818.44
2019-02-26T01:03:42.390Z,96813.17
2019-02-26T01:06:10.757Z,96817.73
2019-02-26T01:08:40.266Z,96812.50
2019-02-26T01:11:10.037Z,96812.99
2019-02-26T01:13:38.614Z,96811.56
2019-02-26T01:16:07.428Z,96813.42
2019-02-26T01:18:36.008Z,96814.52
2019-02-26T01:21:04.599Z,96812.00
2019-02-26T01:23:33.404Z,96810.70
2019-02-26T01:26:01.998Z,96805.14
2019-02-26T01:28:30.829Z,96795.08
2019-02-26T01:31:00.286Z,96798.12
2019-02-26T01:33:31.927Z,96794.91
2019-02-26T01:36:02.565Z,96795.11
2019-02-26T01:38:30.637Z,96791.27
2019-02-26T01:40:59.241Z,96789.34
2019-02-26T01:43:27.882Z,96787.45
2019-02-26T01:45:56.457Z,96783.53
2019-02-26T01:48:25.069Z,96787.20
2019-02-26T01:50:54.421Z,96785.37
2019-02-26T01:53:24.260Z,96783.39
2019-02-26T01:55:53.161Z,96779.22
2019-02-26T01:58:21.990Z,96778.84
2019-02-26T02:00:50.584Z,96778.34
2019-02-26T02:03:20.844Z,96774.94
2019-02-26T02:05:52.466Z,96774.63
2019-02-26T02:08:22.544Z,96769.09
2019-02-26T02:10:53.651Z,96769.05
2019-02-26T02:13:26.076Z,96767.49
2019-02-26T02:15:52.055Z,96764.94
2019-02-26T02:18:22.946Z,96755.04
2019-02-26T02:20:51.266Z,96756.52
2019-02-26T02:23:21.239Z,96748.41
2019-02-26T02:25:50.388Z,96746.98
2019-02-26T02:28:19.583Z,96744.81
2019-02-26T02:30:49.524Z,96736.98
2019-02-26T02:33:23.593Z,96736.31
2019-02-26T02:35:48.397Z,96736.48
2019-02-26T02:38:20.514Z,96739.03
2019-02-26T02:40:49.611Z,96734.86
2019-02-26T02:43:20.317Z,96732.78
2019-02-26T02:45:49.816Z,96725.19
2019-02-26T02:48:18.307Z,96722.03
2019-02-26T02:50:47.142Z,96713.52
2019-02-26T02:53:17.766Z,96714.58
2019-02-26T02:55:47.066Z,96711.56
2019-02-26T02:58:18.318Z,96706.11
2019-02-26T03:00:49.349Z,96701.09
2019-02-26T03:03:17.691Z,96702.64
2019-02-26T03:05:46.563Z,96704.71
2019-02-26T03:08:16.454Z,96708.50
2019-02-26T03:10:45.777Z,96712.41
2019-02-26T03:13:16.825Z,96704.36
2019-02-26T03:15:47.375Z,96706.73
2019-02-26T03:18:16.867Z,96710.66
2019-02-26T03:20:45.508Z,96709.88
2019-02-26T03:23:16.850Z,96705.34
2019-02-26T03:25:47.202Z,96700.11
2019-02-26T03:28:15.254Z,96695.50
2019-02-26T03:30:44.657Z,96692.94
2019-02-26T03:33:13.453Z,96701.24
2019-02-26T03:35:42.057Z,96708.68
2019-02-26T03:38:10.651Z,96705.06
2019-02-26T03:40:39.258Z,96704.32
2019-02-26T03:43:10.220Z,96704.84
2019-02-26T03:45:38.199Z,96707.14
2019-02-26T03:48:07.033Z,96710.63
2019-02-26T03:50:35.697Z,96706.81
2019-02-26T03:53:08.974Z,96711.50
2019-02-26T03:55:36.114Z,96707.69
2019-02-26T03:58:05.733Z,96707.39
2019-02-26T04:00:35.584Z,96700.80
2019-02-26T04:03:05.966Z,96708.09
2019-02-26T04:05:34.973Z,96714.81
2019-02-26T04:08:04.448Z,96715.08
2019-02-26T04:10:33.096Z,96707.59
2019-02-26T04:13:01.674Z,96718.24
2019-02-26T04:15:32.806Z,96719.33
2019-02-26T04:18:00.869Z,96718.73
2019-02-26T04:20:29.702Z,96716.70
2019-02-26T04:22:58.518Z,96718.59
2019-02-26T04:25:36.713Z,96707.59
2019-02-26T04:28:11.576Z,96716.36
2019-02-26T04:31:18.699Z,96717.00
2019-02-26T04:34:16.651Z,96719.22
2019-02-26T04:37:17.599Z,96721.41
2019-02-26T04:40:14.226Z,96715.56
2019-02-26T04:43:17.602Z,96707.59
2019-02-26T04:46:19.979Z,96713.48
2019-02-26T04:48:48.699Z,96710.81
2019-02-26T04:51:17.383Z,96712.79
2019-02-26T04:53:48.607Z,96717.69
2019-02-26T04:56:16.383Z,96720.47
2019-02-26T04:58:45.919Z,96721.05
2019-02-26T05:01:16.421Z,96719.39
2019-02-26T05:03:45.735Z,96720.20
2019-02-26T05:06:14.304Z,96722.05
2019-02-26T05:08:42.997Z,96733.84
2019-02-26T05:11:14.873Z,96724.08
2019-02-26T05:13:41.907Z,96732.00
2019-02-26T05:16:10.496Z,96732.70
2019-02-26T05:18:39.372Z,96734.38
2019-02-26T05:21:10.235Z,96731.70
2019-02-26T05:23:38.595Z,96728.30
2019-02-26T05:26:08.247Z,96729.09
2019-02-26T05:28:40.707Z,96720.86
2019-02-26T05:31:09.063Z,96722.98
2019-02-26T05:33:38.555Z,96729.28
2019-02-26T05:36:09.418Z,96727.84
2019-02-26T05:38:38.039Z,96720.27
2019-02-26T05:41:06.618Z,96718.89
2019-02-26T05:43:35.211Z,96719.67
2019-02-26T05:46:04.155Z,96717.59
2019-02-26T05:48:32.705Z,96716.55
2019-02-26T05:51:03.586Z,96721.41
2019-02-26T05:53:31.828Z,96722.83
2019-02-26T05:56:00.557Z,96720.66
2019-02-26T05:58:29.173Z,96719.62
2019-02-26T06:00:57.844Z,96714.91
2019-02-26T06:03:26.475Z,96717.09
2019-02-26T06:05:57.661Z,96712.73
2019-02-26T06:08:29.143Z,96713.44
2019-02-26T06:10:56.009Z,96713.48
2019-02-26T06:13:24.647Z,96718.50
2019-02-26T06:15:55.131Z,96718.33
2019-02-26T06:18:23.702Z,96718.33
2019-02-26T06:20:53.540Z,96721.31
2019-02-26T06:23:25.316Z,96717.05
2019-02-26T06:25:56.022Z,96715.06
2019-02-26T06:28:25.133Z,96709.23
2019-02-26T06:30:55.112Z,96721.56
2019-02-26T06:33:24.041Z,96714.17
2019-02-26T06:35:52.724Z,96715.13
2019-02-26T06:38:23.321Z,96715.77
2019-02-26T06:40:51.800Z,96712.89
2019-02-26T06:43:20.454Z,96711.70
2019-02-26T06:45:49.152Z,96713.63
2019-02-26T06:48:20.914Z,96707.14
2019-02-26T06:50:49.127Z,96709.86
2019-02-26T06:53:19.313Z,96707.44
2019-02-26T06:55:48.089Z,96710.22
2019-02-26T06:58:24.260Z,96709.81
2019-02-26T07:00:55.364Z,96711.27
2019-02-26T07:03:24.799Z,96709.89
2019-02-26T07:05:53.593Z,96703.05
2019-02-26T07:08:24.197Z,96706.89
2019-02-26T07:10:52.578Z,96710.80
2019-02-26T07:13:21.394Z,96710.30
2019-02-26T07:15:50.262Z,96709.17
2019-02-26T07:18:19.650Z,96702.97
2019-02-26T07:20:52.011Z,96698.33
2019-02-26T07:23:18.759Z,96703.26
2019-02-26T07:25:47.465Z,96699.39
2019-02-26T07:28:17.674Z,96701.28
2019-02-26T07:30:46.957Z,96705.86
2019-02-26T07:33:16.078Z,96704.82
2019-02-26T07:35:44.704Z,96712.62
2019-02-26T07:38:13.328Z,96703.33
2019-02-26T07:40:42.063Z,96706.70
2019-02-26T07:43:14.425Z,96708.41
2019-02-26T07:45:41.269Z,96713.85
2019-02-26T07:48:09.955Z,96715.58
2019-02-26T07:50:40.927Z,96714.00
2019-02-26T07:53:09.301Z,96714.61
2019-02-26T07:55:40.078Z,96711.58
2019-02-26T07:58:09.391Z,96723.34
2019-02-26T08:00:40.304Z,96720.82
2019-02-26T08:03:09.503Z,96724.09
2019-02-26T08:05:38.333Z,96719.05
2019-02-26T08:08:07.092Z,96716.50
2019-02-26T08:10:39.405Z,96716.25
2019-02-26T08:13:07.966Z,96717.12
2019-02-26T08:15:37.526Z,96711.94
2019-02-26T08:18:06.958Z,96716.44
2019-02-26T08:20:37.576Z,96717.24
2019-02-26T08:23:06.546Z,96717.39
2019-02-26T08:25:35.594Z,96704.00
2019-02-26T08:28:05.695Z,96715.05
2019-02-26T08:30:34.841Z,96714.55
2019-02-26T08:33:05.282Z,96713.28
2019-02-26T08:35:34.218Z,96709.84
2019-02-26T08:38:05.661Z,96717.28
2019-02-26T08:40:33.615Z,96716.45
2019-02-26T08:43:02.311Z,96713.64
2019-02-26T08:45:31.300Z,96711.45
2019-02-26T08:48:00.094Z,96708.62
2019-02-26T08:50:33.108Z,96706.69
2019-02-26T08:52:59.330Z,96704.97
2019-02-26T08:55:28.184Z,96696.62
2019-02-26T08:57:56.890Z,96701.85
2019-02-26T09:00:25.727Z,96687.64
2019-02-26T09:02:56.562Z,96691.05
2019-02-26T09:05:26.309Z,96686.41
2019-02-26T09:07:55.315Z,96688.53
2019-02-26T09:10:23.892Z,96683.22
2019-02-26T09:12:52.588Z,96682.51
2019-02-26T09:15:21.427Z,96683.22
2019-02-26T09:17:50.263Z,96679.90
2019-02-26T09:20:18.891Z,96681.77
2019-02-26T09:22:50.195Z,96677.02
2019-02-26T09:25:20.030Z,96677.83
2019-02-26T09:27:48.336Z,96682.98
2019-02-26T09:30:17.005Z,96681.56
2019-02-26T09:32:45.670Z,96684.28
2019-02-26T09:35:16.885Z,96693.56
2019-02-26T09:37:47.330Z,96695.73
2019-02-26T09:40:17.127Z,96695.09
2019-02-26T09:42:47.963Z,96696.01
2019-02-26T09:45:18.698Z,96698.69
2019-02-26T09:47:49.707Z,96699.67
2019-02-26T09:50:20.708Z,96700.44
2019-02-26T09:52:50.819Z,96702.50
2019-02-26T09:55:19.552Z,96710.45
2019-02-26T09:57:48.370Z,96705.09
2019-02-26T10:00:20.311Z,96709.31
2019-02-26T10:02:49.481Z,96710.88
2019-02-26T10:05:18.845Z,96705.38
2019-02-26T10:07:47.670Z,96708.44
2019-02-26T10:10:17.117Z,96709.23
2019-02-26T10:12:45.901Z,96709.77
2019-02-26T10:15:15.055Z,96706.48
2019-02-26T10:17:45.198Z,96707.39
2019-02-26T10:20:17.817Z,96708.73
2019-02-26T10:22:47.497Z,96707.61
2019-02-26T10:25:16.348Z,96710.77
2019-02-26T10:27:45.442Z,96714.09
2019-02-26T10:30:16.265Z,96717.57
2019-02-26T10:32:46.775Z,96713.66
2019-02-26T10:35:19.444Z,96713.25
2019-02-26T10:37:51.568Z,96719.08
2019-02-26T10:40:20.261Z,96715.42
2019-02-26T10:42:49.052Z,96715.78
2019-02-26T10:45:18.748Z,96716.52
2019-02-26T10:47:48.902Z,96719.88
2019-02-26T10:50:19.537Z,96715.92
2019-02-26T10:52:48.722Z,96717.80
2019-02-26T10:55:18.366Z,96717.53
2019-02-26T10:57:47.928Z,96715.14
2019-02-26T11:00:22.597Z,96725.39
2019-02-26T11:02:54.099Z,96712.12
2019-02-26T11:05:26.196Z,96720.38
2019-02-26T11:07:55.313Z,96711.83
2019-02-26T11:10:25.217Z,96717.06
2019-02-26T11:12:56.257Z,96715.37
2019-02-26T11:15:26.703Z,96711.75
2019-02-26T11:17:55.832Z,96707.53
2019-02-26T11:20:27.681Z,96706.14
2019-02-26T11:22:54.980Z,96702.39
2019-02-26T11:25:24.843Z,96701.84
2019-02-26T11:27:54.048Z,96700.16
2019-02-26T11:30:23.908Z,96698.62
2019-02-26T11:32:56.041Z,96696.07
2019-02-26T11:35:24.701Z,96691.11
2019-02-26T11:37:57.323Z,96694.87
2019-02-26T11:40:27.381Z,96690.09
2019-02-26T11:42:55.568Z,96691.69
2019-02-26T11:45:24.588Z,96684.62
2019-02-26T11:47:55.767Z,96679.72
2019-02-26T11:50:27.973Z,96683.00
2019-02-26T11:52:55.200Z,96682.09
2019-02-26T11:55:26.189Z,96678.23
2019-02-26T11:57:54.059Z,96673.55
2019-02-26T12:00:39.914Z,96672.81
2019-02-26T12:03:07.804Z,96673.03
2019-02-26T12:05:38.900Z,96671.00
2019-02-26T12:08:06.867Z,96669.86
2019-02-26T12:10:37.890Z,96669.56
2019-02-26T12:13:05.903Z,96671.09
2019-02-26T12:15:36.310Z,96669.37
2019-02-26T12:18:05.496Z,96668.08
2019-02-26T12:20:35.583Z,96660.69
2019-02-26T12:23:07.787Z,96665.07
2019-02-26T12:25:35.281Z,96651.14
2019-02-26T12:28:05.390Z,96651.91
2019-02-26T12:30:34.933Z,96659.14
2019-02-26T12:33:04.634Z,96662.87
2019-02-26T12:35:35.479Z,96663.20
2019-02-26T12:38:17.368Z,96662.52
2019-02-26T12:40:37.183Z,96669.34
2019-02-26T12:43:06.567Z,96660.95
2019-02-26T12:45:38.677Z,96670.19
2019-02-26T12:48:06.525Z,96666.06
2019-02-26T12:50:37.440Z,96658.85
2019-02-26T12:53:09.534Z,96658.03
2019-02-26T12:55:38.443Z,96663.92
2019-02-26T12:58:07.292Z,96651.66
2019-02-26T13:00:38.344Z,96651.96
2019-02-26T13:03:09.384Z,96652.27
2019-02-26T13:05:39.234Z,96642.13
2019-02-26T13:08:10.047Z,96646.03
2019-02-26T13:10:38.652Z,96638.71
2019-02-26T13:13:08.178Z,96631.46
2019-02-26T13:15:36.751Z,96629.64
2019-02-26T13:18:05.431Z,96630.91
2019-02-26T13:20:34.121Z,96626.45
2019-02-26T13:23:16.436Z,96621.58
2019-02-26T13:25:33.052Z,96625.92
2019-02-26T13:28:01.656Z,96626.44
2019-02-26T13:30:30.261Z,96619.69
2019-02-26T13:33:00.853Z,96619.61
2019-02-26T13:35:29.211Z,96609.61
2019-02-26T13:37:57.913Z,96610.89
2019-02-26T13:40:27.483Z,96613.16
2019-02-26T13:45:29.302Z,96601.77
2019-02-26T13:48:01.336Z,96602.27
2019-02-26T13:50:28.760Z,96597.02
2019-02-26T13:52:57.694Z,96597.86
2019-02-26T13:55:26.465Z,96596.02
2019-02-26T13:57:55.100Z,96585.66
2019-02-26T14:00:26.763Z,96582.70
2019-02-26T14:02:54.394Z,96580.63
2019-02-26T14:05:23.103Z,96579.02
2019-02-26T14:07:51.782Z,96581.02
2019-02-26T14:10:21.614Z,96580.96
2019-02-26T14:12:50.367Z,96575.61
2019-02-26T14:15:21.154Z,96574.24
2019-02-26T14:17:49.995Z,96569.26
2019-02-26T14:20:18.676Z,96559.59
2019-02-26T14:22:47.331Z,96563.09
2019-02-26T14:25:16.468Z,96557.91
2019-02-26T14:27:45.154Z,96558.73
2019-02-26T14:30:14.487Z,96556.93
2019-02-26T14:32:43.083Z,96548.51
2019-02-26T14:35:12.389Z,96555.94
2019-02-26T14:37:41.106Z,96557.58
2019-02-26T14:40:11.166Z,96554.08
2019-02-26T14:42:39.829Z,96557.77
2019-02-26T14:45:10.776Z,96552.70
2019-02-26T14:47:39.536Z,96551.05
2019-02-26T14:50:10.370Z,96551.66
2019-02-26T14:52:39.350Z,96544.95
2019-02-26T14:55:08.427Z,96547.45
2019-02-26T14:57:37.119Z,96545.98
2019-02-26T15:00:09.128Z,96542.36
2019-02-26T15:02:37.918Z,96543.75
2019-02-26T15:05:06.761Z,96543.51
2019-02-26T15:07:35.422Z,96543.22
2019-02-26T15:10:04.674Z,96543.39
2019-02-26T15:12:33.285Z,96544.23
2019-02-26T15:15:01.933Z,96537.59
2019-02-26T15:17:31.065Z,96535.81
2019-02-26T15:20:00.517Z,96531.93
2019-02-26T15:22:29.265Z,96536.16
2019-02-26T15:24:58.101Z,96540.16
2019-02-26T15:27:35.979Z,96536.84
2019-02-26T15:29:59.581Z,96536.73
2019-02-26T15:32:28.379Z,96537.22
2019-02-26T15:34:57.623Z,96532.25
2019-02-26T15:37:26.675Z,96534.55
2019-02-26T15:39:55.731Z,96535.85
2019-02-26T15:42:24.851Z,96530.01
2019-02-26T15:44:53.646Z,96533.66
2019-02-26T15:47:22.411Z,96535.61
2019-02-26T15:49:51.013Z,96531.42
2019-02-26T15:52:22.217Z,96533.55
2019-02-26T15:54:50.445Z,96528.64
2019-02-26T15:57:19.097Z,96523.52
2019-02-26T15:59:47.796Z,96530.25
2019-02-26T16:02:16.446Z,96523.47
2019-02-26T16:04:45.260Z,96532.31
2019-02-26T16:07:13.978Z,96528.04
2019-02-26T16:09:42.563Z,96530.25
2019-02-26T16:12:11.264Z,96529.69
2019-02-26T16:14:39.880Z,96531.50
2019-02-26T16:17:09.649Z,96523.38
2019-02-26T16:19:38.234Z,96521.47
2019-02-26T16:22:06.932Z,96520.55
2019-02-26T16:24:35.772Z,96522.62
2019-02-26T16:27:04.670Z,96530.60
2019-02-26T16:29:33.547Z,96527.01
2019-02-26T16:32:02.730Z,96529.20
2019-02-26T16:34:32.607Z,96530.13
2019-02-26T16:37:03.315Z,96529.98
2019-02-26T16:39:31.489Z,96532.77
2019-02-26T16:42:00.254Z,96527.91
2019-02-26T16:44:29.598Z,96521.91
2019-02-26T16:46:58.199Z,96523.86
2019-02-26T16:49:27.868Z,96526.08
2019-02-26T16:51:56.563Z,96529.27
2019-02-26T16:54:26.493Z,96526.49
2019-02-26T16:56:55.517Z,96526.71
2019-02-26T16:59:24.172Z,96524.58
2019-02-26T17:01:54.950Z,96528.31
2019-02-26T17:04:24.108Z,96530.06
2019-02-26T17:06:53.925Z,96535.23
2019-02-26T17:09:23.105Z,96537.28
2019-02-26T17:11:53.007Z,96539.70
2019-02-26T17:14:21.839Z,96541.53
2019-02-26T17:16:50.661Z,96542.58
2019-02-26T17:19:19.553Z,96545.55
2019-02-26T17:21:48.203Z,96542.59
2019-02-26T17:24:18.444Z,96552.08
2019-02-26T17:26:47.481Z,96554.55
2019-02-26T17:29:16.900Z,96557.02
2019-02-26T17:31:46.396Z,96556.41
2019-02-26T17:34:15.103Z,96555.72
2019-02-26T17:36:43.731Z,96561.56
2019-02-26T17:39:12.549Z,96559.62
2019-02-26T17:41:44.649Z,96564.52
2019-02-26T17:44:11.632Z,96565.20
2019-02-26T17:46:40.524Z,96565.13
2019-02-26T17:49:09.124Z,96562.89
2019-02-26T17:51:37.785Z,96563.34
2019-02-26T17:54:06.501Z,96559.94
2019-02-26T17:56:35.745Z,96562.96
2019-02-26T17:59:05.064Z,96560.58
2019-02-26T18:01:33.789Z,96560.58
2019-02-26T18:04:02.581Z,96561.04
2019-02-26T18:06:31.394Z,96559.87
2019-02-26T18:09:01.071Z,96559.87
2019-02-26T18:11:30.225Z,96562.72
2019-02-26T18:14:00.181Z,96560.20
2019-02-26T18:16:31.722Z,96563.11
2019-02-26T18:19:00.176Z,96559.97
2019-02-26T18:21:29.237Z,96559.25
2019-02-26T18:23:57.954Z,96561.23
2019-02-26T18:26:26.674Z,96562.65
2019-02-26T18:28:55.294Z,96557.45
2019-02-26T18:31:26.411Z,96555.64
2019-02-26T18:33:54.438Z,96558.70
2019-02-26T18:36:24.788Z,96561.88
2019-02-26T18:38:53.504Z,96561.98
2019-02-26T18:41:22.142Z,96566.86
2019-02-26T18:43:50.752Z,96564.91
2019-02-26T18:46:19.539Z,96568.19
2019-02-26T18:48:48.822Z,96569.68
2019-02-26T18:51:17.790Z,96563.19
2019-02-26T18:53:47.739Z,96556.50
2019-02-26T18:56:16.752Z,96557.42
2019-02-26T18:58:46.660Z,96563.08
2019-02-26T19:01:15.832Z,96564.09
2019-02-26T19:03:44.548Z,96563.19
2019-02-26T19:06:13.164Z,96555.19
2019-02-26T19:08:41.824Z,96551.79
2019-02-26T19:11:16.478Z,96554.14
2019-02-26T19:13:41.283Z,96556.73
2019-02-26T19:16:09.980Z,96548.17
2019-02-26T19:18:38.653Z,96553.08
2019-02-26T19:21:07.345Z,96552.00
2019-02-26T19:23:35.937Z,96548.23
2019-02-26T19:26:04.575Z,96550.58
2019-02-26T19:28:33.432Z,96548.80
2019-02-26T19:31:02.291Z,96545.88
2019-02-26T19:33:30.926Z,96543.28
2019-02-26T19:35:59.730Z,96545.12
2019-02-26T19:38:28.400Z,96545.91
2019-02-26T19:40:58.021Z,96543.64
2019-02-26T19:43:28.705Z,96555.56
2019-02-26T19:45:57.105Z,96548.60
2019-02-26T19:48:25.820Z,96545.89
2019-02-26T19:50:54.586Z,96547.79
2019-02-26T19:53:24.188Z,96546.61
2019-02-26T19:55:53.217Z,96551.65
2019-02-26T19:58:21.771Z,96547.60
2019-02-26T20:00:52.886Z,96544.72
2019-02-26T20:03:20.961Z,96541.41
2019-02-26T20:05:49.566Z,96538.97
2019-02-26T20:08:18.174Z,96542.17
2019-02-26T20:10:48.735Z,96538.83
2019-02-26T20:13:17.324Z,96538.06
2019-02-26T20:15:46.151Z,96539.40
2019-02-26T20:18:20.680Z,96538.08
2019-02-26T20:20:46.489Z,96535.64
2019-02-26T20:23:15.151Z,96534.66
2019-02-26T20:25:43.753Z,96540.44
2019-02-26T20:28:12.327Z,96537.84
2019-02-26T20:30:41.141Z,96538.81
2019-02-26T20:33:10.027Z,96541.31
2019-02-26T20:35:38.606Z,96531.44
2019-02-26T20:38:07.183Z,96539.55
2019-02-26T20:40:35.741Z,96534.20
2019-02-26T20:43:05.384Z,96537.81
2019-02-26T20:45:34.093Z,96541.55
2019-02-26T20:48:04.239Z,96545.36
2019-02-26T20:50:33.184Z,96541.66
2019-02-26T20:53:05.674Z,96542.45
2019-02-26T20:55:33.746Z,96539.78
2019-02-26T21:25:57.313Z,96513.50
2019-02-26T21:28:27.336Z,96516.23
2019-02-26T21:30:56.026Z,96512.65
2019-02-26T21:33:24.606Z,96513.47
2019-02-26T21:35:54.207Z,96515.52
2019-02-26T21:38:23.535Z,96502.53
2019-02-26T21:40:52.190Z,96505.92
2019-02-26T21:43:21.879Z,96502.46
2019-02-26T21:45:50.570Z,96502.05
2019-02-26T21:48:19.185Z,96495.81
2019-02-26T21:50:48.830Z,96496.17
2019-02-26T21:53:17.484Z,96492.88
2019-02-26T21:55:46.276Z,96495.98
2019-02-26T21:58:15.066Z,96497.95
2019-02-26T22:00:43.755Z,96494.92
2019-02-26T22:03:12.365Z,96492.00
2019-02-26T22:05:41.263Z,96502.92
2019-02-26T22:08:09.862Z,96505.33
2019-02-26T22:10:40.221Z,96496.64
2019-02-26T22:13:09.740Z,96491.41
2019-02-26T22:15:38.368Z,96492.48
2019-02-26T22:18:07.091Z,96488.31
2019-02-26T22:20:36.593Z,96482.48
2019-02-26T22:23:05.363Z,96483.91
2019-02-26T22:25:34.028Z,96474.71
2019-02-26T22:28:02.641Z,96475.91
2019-02-26T22:30:31.228Z,96470.84
2019-02-26T22:32:59.899Z,96476.38
2019-02-26T22:35:28.587Z,96472.01
2019-02-26T22:37:57.168Z,96471.16
2019-02-26T22:40:28.947Z,96465.42
2019-02-26T22:42:56.058Z,96465.37
2019-02-26T22:45:27.677Z,96461.41
2019-02-26T22:47:55.015Z,96463.89
2019-02-26T22:50:24.938Z,96465.89
2019-02-26T22:52:54.041Z,96466.97
2019-02-26T22:55:22.672Z,96466.70
2019-02-26T22:57:51.258Z,96469.08
2019-02-26T23:00:48.333Z,96466.02
2019-02-26T23:03:14.525Z,96460.36
2019-02-26T23:05:43.182Z,96465.23
2019-02-26T23:08:12.496Z,96465.27
2019-02-26T23:10:41.229Z,96464.77
2019-02-26T23:13:09.873Z,96465.23
2019-02-26T23:15:38.487Z,96465.22
2019-02-26T23:18:07.056Z,96464.06
2019-02-26T23:20:35.786Z,96459.08
2019-02-26T23:23:04.870Z,96463.66
2019-02-26T23:25:33.659Z,96453.89
2019-02-26T23:28:03.993Z,96454.73
2019-02-26T23:30:32.822Z,96455.19
2019-02-26T23:33:01.741Z,96451.72
2019-02-26T23:35:30.441Z,96450.26
2019-02-26T23:37:59.084Z,96448.50
2019-02-26T23:40:28.124Z,96441.13
2019-02-26T23:42:57.122Z,96449.92
2019-02-26T23:45:25.947Z,96441.63
2019-02-26T23:47:54.519Z,96442.22
2019-02-26T23:50:23.132Z,96437.47
2019-02-26T23:52:51.714Z,96439.80
2019-02-26T23:55:20.360Z,96443.30
2019-02-26T23:57:48.988Z,96439.16
